createdAt,value
2022-08-20T00:01:02.024Z,8.668594
2022-08-20T00:01:57.411Z,8.668540
2022-08-20T00:02:56.322Z,8.668627
2022-08-20T00:03:56.299Z,8.668520
2022-08-20T00:04:56.272Z,8.668429
2022-08-20T00:05:56.795Z,8.668466
2022-08-20T00:06:56.243Z,8.668489
2022-08-20T00:07:56.437Z,8.668484
2022-08-20T00:08:56.234Z,8.668500
2022-08-20T00:09:56.267Z,8.668448
2022-08-20T00:10:56.186Z,8.668492
2022-08-20T00:11:56.167Z,8.668468
2022-08-20T00:12:56.139Z,8.668444
2022-08-20T00:13:56.143Z,8.668497
2022-08-20T00:14:56.094Z,8.668544
2022-08-20T00:15:56.086Z,8.668556
2022-08-20T00:16:56.104Z,8.668584
2022-08-20T00:17:56.186Z,8.668540
2022-08-20T00:18:56.032Z,8.668521
2022-08-20T00:19:56.032Z,8.668556
2022-08-20T00:20:55.993Z,8.668556
2022-08-20T00:21:58.090Z,8.668530
2022-08-20T00:22:55.973Z,8.668529
2022-08-20T00:23:55.927Z,8.668470
2022-08-20T00:24:55.965Z,8.668476
2022-08-20T00:25:56.048Z,8.668391
2022-08-20T00:26:55.873Z,8.668497
2022-08-20T00:27:56.055Z,8.668498
2022-08-20T00:28:55.838Z,8.668490
2022-08-20T00:29:55.828Z,8.668509
2022-08-20T00:30:55.815Z,8.668526
2022-08-20T00:31:55.803Z,8.668481
2022-08-20T00:32:55.747Z,8.668432
2022-08-20T00:33:55.765Z,8.668447
2022-08-20T00:34:55.798Z,8.668510
2022-08-20T00:35:55.716Z,8.668620
2022-08-20T00:36:55.705Z,8.668642
2022-08-20T00:38:00.376Z,8.668614
2022-08-20T00:38:56.671Z,8.668551
2022-08-20T00:39:55.699Z,8.668529
2022-08-20T00:40:55.694Z,8.668549
2022-08-20T00:41:55.592Z,8.668582
2022-08-20T00:42:55.678Z,8.668591
2022-08-20T00:43:55.603Z,8.668622
2022-08-20T00:44:57.188Z,8.668609
2022-08-20T00:45:55.536Z,8.668626
2022-08-20T00:46:55.521Z,8.668592
2022-08-20T00:47:55.619Z,8.668609
2022-08-20T00:48:55.484Z,8.668535
2022-08-20T00:49:55.471Z,8.668587
2022-08-20T00:50:55.490Z,8.668561
2022-08-20T00:51:55.421Z,8.668563
2022-08-20T00:52:55.460Z,8.668612
2022-08-20T00:53:55.371Z,8.668615
2022-08-20T00:54:55.363Z,8.668556
2022-08-20T00:55:55.375Z,8.668528
2022-08-20T00:56:55.313Z,8.668529
2022-08-20T00:58:00.845Z,8.668517
2022-08-20T00:58:56.294Z,8.668504
2022-08-20T00:59:55.300Z,8.668540
2022-08-20T01:00:55.254Z,8.668494
2022-08-20T01:01:56.576Z,8.668486
2022-08-20T01:02:55.237Z,8.668495
2022-08-20T01:03:55.973Z,8.668543
2022-08-20T01:04:55.182Z,8.668577
2022-08-20T01:05:55.156Z,8.668583
2022-08-20T01:06:55.203Z,8.668515
2022-08-20T01:07:55.346Z,8.668551
2022-08-20T01:08:55.151Z,8.668535
2022-08-20T01:09:58.919Z,8.668564
2022-08-20T01:10:55.162Z,8.668497
2022-08-20T01:11:55.055Z,8.668565
2022-08-20T01:12:58.997Z,8.668575
2022-08-20T01:13:55.706Z,8.668622
2022-08-20T01:14:54.994Z,8.668573
2022-08-20T01:15:54.903Z,8.668575
2022-08-20T01:16:54.951Z,8.668567
2022-08-20T01:17:55.159Z,8.668597
2022-08-20T01:18:54.911Z,8.668560
2022-08-20T01:19:54.898Z,8.668598
2022-08-20T01:20:54.890Z,8.668583
2022-08-20T01:21:54.858Z,8.668596
2022-08-20T01:22:54.835Z,8.668582
2022-08-20T01:23:54.857Z,8.668605
2022-08-20T01:24:54.811Z,8.668569
2022-08-20T01:25:54.807Z,8.668602
2022-08-20T01:26:54.798Z,8.668625
2022-08-20T01:27:55.560Z,8.668608
2022-08-20T01:28:54.753Z,8.668585
2022-08-20T01:29:54.718Z,8.668542
2022-08-20T01:30:54.680Z,8.668596
2022-08-20T01:31:54.669Z,8.668588
2022-08-20T01:32:54.668Z,8.668563
2022-08-20T01:33:54.659Z,8.668565
2022-08-20T01:34:54.620Z,8.668527
2022-08-20T01:35:54.660Z,8.668529
2022-08-20T01:36:54.606Z,8.668531
2022-08-20T01:37:54.707Z,8.668544
2022-08-20T01:38:54.947Z,8.668574
2022-08-20T01:39:54.535Z,8.668624
2022-08-20T01:40:54.511Z,8.668678
2022-08-20T01:41:54.508Z,8.668587
2022-08-20T01:42:59.514Z,8.668603
2022-08-20T01:43:55.499Z,8.668634
2022-08-20T01:44:54.472Z,8.668649
2022-08-20T01:45:54.422Z,8.668613
2022-08-20T01:46:54.403Z,8.668571
2022-08-20T01:47:54.703Z,8.668612
2022-08-20T01:48:54.391Z,8.668653
2022-08-20T01:49:54.318Z,8.668613
2022-08-20T01:50:54.314Z,8.668598
2022-08-20T01:51:54.306Z,8.668602
2022-08-20T01:52:54.282Z,8.668618
2022-08-20T01:53:54.357Z,8.668665
2022-08-20T01:54:54.269Z,8.668558
2022-08-20T01:55:54.240Z,8.668569
2022-08-20T01:56:54.212Z,8.668596
2022-08-20T01:57:54.224Z,8.668601
2022-08-20T01:58:56.028Z,8.668603
2022-08-20T01:59:54.166Z,8.668628
2022-08-20T02:00:54.145Z,8.668596
2022-08-20T02:01:54.178Z,8.668552
2022-08-20T02:02:54.206Z,8.668577
2022-08-20T02:03:54.137Z,8.668609
2022-08-20T02:04:54.075Z,8.668630
2022-08-20T02:05:54.064Z,8.668571
2022-08-20T02:06:56.325Z,8.668615
2022-08-20T02:07:54.052Z,8.668666
2022-08-20T02:08:54.030Z,8.668615
2022-08-20T02:09:54.066Z,8.668605
2022-08-20T02:10:53.974Z,8.668623
2022-08-20T02:11:54.001Z,8.668549
2022-08-20T02:12:53.941Z,8.668592
2022-08-20T02:13:54.654Z,8.668631
2022-08-20T02:14:53.945Z,8.668588
2022-08-20T02:15:53.887Z,8.668617
2022-08-20T02:16:55.073Z,8.668641
2022-08-20T02:17:53.941Z,8.668665
2022-08-20T02:18:53.849Z,8.668626
2022-08-20T02:19:53.821Z,8.668509
2022-08-20T02:20:53.917Z,8.668468
2022-08-20T02:21:53.790Z,8.668479
2022-08-20T02:22:53.751Z,8.668594
2022-08-20T02:23:53.735Z,8.668521
2022-08-20T02:24:53.709Z,8.668547
2022-08-20T02:25:53.712Z,8.668557
2022-08-20T02:26:53.686Z,8.668468
2022-08-20T02:27:53.722Z,8.668479
2022-08-20T02:28:53.611Z,8.668486
2022-08-20T02:29:53.602Z,8.668529
2022-08-20T02:30:53.683Z,8.668456
2022-08-20T02:32:32.379Z,8.668453
2022-08-20T02:32:56.250Z,8.668487
2022-08-20T02:34:21.790Z,8.668551
2022-08-20T02:34:54.425Z,8.668515
2022-08-20T02:35:53.557Z,8.668446
2022-08-20T02:36:53.526Z,8.668502
2022-08-20T02:37:53.437Z,8.668486
2022-08-20T02:38:53.431Z,8.668370
2022-08-20T02:39:53.440Z,8.668396
2022-08-20T02:40:53.429Z,8.668477
2022-08-20T02:41:53.362Z,8.668480
2022-08-20T02:42:53.383Z,8.668482
2022-08-20T02:43:53.311Z,8.668447
2022-08-20T02:44:53.328Z,8.668631
2022-08-20T02:45:53.497Z,8.668694
2022-08-20T02:46:53.307Z,8.668712
2022-08-20T02:47:53.253Z,8.668516
2022-08-20T02:48:53.262Z,8.668511
2022-08-20T02:49:53.210Z,8.668489
2022-08-20T02:50:53.216Z,8.668559
2022-08-20T02:51:53.220Z,8.668570
2022-08-20T02:52:53.082Z,8.668559
2022-08-20T02:53:53.153Z,8.668574
2022-08-20T02:54:53.162Z,8.668556
2022-08-20T02:55:53.121Z,8.668564
2022-08-20T02:56:53.011Z,8.668552
2022-08-20T02:57:52.990Z,8.668529
2022-08-20T02:58:52.996Z,8.668473
2022-08-20T02:59:52.957Z,8.668563
2022-08-20T03:00:52.925Z,8.668550
2022-08-20T03:01:59.987Z,8.668612
2022-08-20T03:02:53.999Z,8.668609
2022-08-20T03:03:52.872Z,8.668534
2022-08-20T03:04:52.841Z,8.668575
2022-08-20T03:05:52.925Z,8.668587
2022-08-20T03:06:53.153Z,8.668557
2022-08-20T03:07:52.936Z,8.668563
2022-08-20T03:08:52.799Z,8.668525
2022-08-20T03:09:52.772Z,8.668510
2022-08-20T03:10:52.733Z,8.668593
2022-08-20T03:11:52.777Z,8.668563
2022-08-20T03:12:52.754Z,8.668564
2022-08-20T03:13:52.715Z,8.668616
2022-08-20T03:14:52.710Z,8.668593
2022-08-20T03:15:56.605Z,8.668646
2022-08-20T03:16:53.718Z,8.668654
2022-08-20T03:17:52.666Z,8.668620
2022-08-20T03:18:52.612Z,8.668518
2022-08-20T03:19:52.595Z,8.668591
2022-08-20T03:20:52.557Z,8.668612
2022-08-20T03:21:52.528Z,8.668526
2022-08-20T03:22:52.535Z,8.668555
2022-08-20T03:23:52.532Z,8.668568
2022-08-20T03:24:52.506Z,8.668565
2022-08-20T03:25:52.483Z,8.668517
2022-08-20T03:26:52.449Z,8.668601
2022-08-20T03:27:54.434Z,8.668582
2022-08-20T03:28:52.449Z,8.668582
2022-08-20T03:29:52.406Z,8.668533
2022-08-20T03:30:52.405Z,8.668529
2022-08-20T03:31:52.364Z,8.668553
2022-08-20T03:32:52.394Z,8.668532
2022-08-20T03:33:53.363Z,8.668380
2022-08-20T03:34:52.322Z,8.668521
2022-08-20T03:35:52.330Z,8.668448
2022-08-20T03:36:52.292Z,8.668559
2022-08-20T03:37:52.269Z,8.668541
2022-08-20T03:38:52.257Z,8.668550
2022-08-20T03:39:52.334Z,8.668511
2022-08-20T03:40:52.229Z,8.668665
2022-08-20T03:41:52.213Z,8.668626
2022-08-20T03:42:52.192Z,8.668609
2022-08-20T03:43:52.203Z,8.668612
2022-08-20T03:44:58.879Z,8.668659
2022-08-20T03:45:53.104Z,8.668592
2022-08-20T03:46:52.114Z,8.668576
2022-08-20T03:47:52.111Z,8.668568
2022-08-20T03:48:59.602Z,8.668465
2022-08-20T03:49:53.068Z,8.668341
2022-08-20T03:50:52.042Z,8.668386
2022-08-20T03:51:57.144Z,8.668471
2022-08-20T03:52:52.988Z,8.668417
2022-08-20T03:53:52.018Z,8.668414
2022-08-20T03:54:51.960Z,8.668431
2022-08-20T03:55:53.773Z,8.668541
2022-08-20T03:56:51.913Z,8.668409
2022-08-20T03:57:51.962Z,8.668437
2022-08-20T03:58:51.892Z,8.668489
2022-08-20T03:59:58.043Z,8.668489
2022-08-20T04:00:52.966Z,8.668378
2022-08-20T04:01:51.862Z,8.668428
2022-08-20T04:02:51.791Z,8.668487
2022-08-20T04:03:55.091Z,8.668504
2022-08-20T04:04:51.777Z,8.668526
2022-08-20T04:05:51.761Z,8.668571
2022-08-20T04:06:51.775Z,8.668597
2022-08-20T04:07:51.815Z,8.668611
2022-08-20T04:08:51.864Z,8.668509
2022-08-20T04:09:51.684Z,8.668569
2022-08-20T04:10:51.680Z,8.668492
2022-08-20T04:11:51.680Z,8.668567
2022-08-20T04:12:52.831Z,8.668540
2022-08-20T04:13:51.610Z,8.668533
2022-08-20T04:14:51.621Z,8.668624
2022-08-20T04:15:51.568Z,8.668579
2022-08-20T04:16:51.584Z,8.668374
2022-08-20T04:17:51.589Z,8.668604
2022-08-20T04:18:56.119Z,8.668610
2022-08-20T04:19:52.531Z,8.668474
2022-08-20T04:20:51.484Z,8.668565
2022-08-20T04:21:51.500Z,8.668532
2022-08-20T04:22:58.583Z,8.668617
2022-08-20T04:23:52.422Z,8.668645
2022-08-20T04:24:51.406Z,8.668678
2022-08-20T04:25:51.374Z,8.668665
2022-08-20T04:26:51.366Z,8.668575
2022-08-20T04:27:51.399Z,8.668555
2022-08-20T04:28:51.326Z,8.668555
2022-08-20T04:29:51.322Z,8.668554
2022-08-20T04:30:52.037Z,8.668555
2022-08-20T04:31:51.248Z,8.668630
2022-08-20T04:32:51.276Z,8.668582
2022-08-20T04:33:51.219Z,8.668584
2022-08-20T04:34:51.194Z,8.668630
2022-08-20T04:35:51.223Z,8.668677
2022-08-20T04:36:51.168Z,8.668727
2022-08-20T04:37:51.205Z,8.668618
2022-08-20T04:38:51.240Z,8.668606
2022-08-20T04:39:51.145Z,8.668620
2022-08-20T04:40:51.128Z,8.668632
2022-08-20T04:41:51.090Z,8.668625
2022-08-20T04:42:51.829Z,8.668678
2022-08-20T04:43:51.076Z,8.668777
2022-08-20T04:44:51.046Z,8.668756
2022-08-20T04:45:51.056Z,8.668706
2022-08-20T04:46:51.001Z,8.668604
2022-08-20T04:47:50.963Z,8.668662
2022-08-20T04:48:51.005Z,8.668703
2022-08-20T04:49:50.924Z,8.668682
2022-08-20T04:50:50.921Z,8.668748
2022-08-20T04:51:50.871Z,8.668714
2022-08-20T04:52:50.858Z,8.668696
2022-08-20T04:53:53.223Z,8.668708
2022-08-20T04:54:50.846Z,8.668653
2022-08-20T04:55:50.840Z,8.668640
2022-08-20T04:56:50.800Z,8.668634
2022-08-20T04:57:50.795Z,8.668644
2022-08-20T04:58:50.771Z,8.668656
2022-08-20T04:59:50.778Z,8.668600
2022-08-20T05:00:50.735Z,8.668506
2022-08-20T05:01:50.742Z,8.668605
2022-08-20T05:02:50.686Z,8.668609
2022-08-20T05:03:50.646Z,8.668535
2022-08-20T05:04:50.682Z,8.668545
2022-08-20T05:05:50.625Z,8.668725
2022-08-20T05:06:50.634Z,8.668631
2022-08-20T05:07:50.605Z,8.668595
2022-08-20T05:08:50.582Z,8.668589
2022-08-20T05:09:50.544Z,8.668529
2022-08-20T05:10:50.549Z,8.668584
2022-08-20T05:11:51.526Z,8.668613
2022-08-20T05:12:53.498Z,8.668522
2022-08-20T05:13:51.467Z,8.668530
2022-08-20T05:14:50.451Z,8.668524
2022-08-20T05:15:50.498Z,8.668533
2022-08-20T05:16:50.452Z,8.668526
2022-08-20T05:17:50.419Z,8.668460
2022-08-20T05:18:52.523Z,8.668274
2022-08-20T05:19:50.359Z,8.668438
2022-08-20T05:20:50.366Z,8.668530
2022-08-20T05:21:50.396Z,8.668497
2022-08-20T05:22:50.291Z,8.668503
2022-08-20T05:23:50.294Z,8.668431
2022-08-20T05:24:50.274Z,8.668451
2022-08-20T05:25:50.254Z,8.668452
2022-08-20T05:26:50.355Z,8.668523
2022-08-20T05:27:50.232Z,8.668601
2022-08-20T05:28:57.386Z,8.668588
2022-08-20T05:29:51.181Z,8.668567
2022-08-20T05:30:50.161Z,8.668533
2022-08-20T05:31:50.160Z,8.668522
2022-08-20T05:32:50.114Z,8.668489
2022-08-20T05:33:50.100Z,8.668516
2022-08-20T05:34:50.087Z,8.668504
2022-08-20T05:35:50.062Z,8.668533
2022-08-20T05:36:50.064Z,8.668512
2022-08-20T05:37:50.101Z,8.668510
2022-08-20T05:38:49.986Z,8.668555
2022-08-20T05:39:50.022Z,8.668481
2022-08-20T05:40:50.010Z,8.668480
2022-08-20T05:41:49.956Z,8.668462
2022-08-20T05:42:49.995Z,8.668451
2022-08-20T05:43:51.413Z,8.668410
2022-08-20T05:44:50.008Z,8.668447
2022-08-20T05:45:53.439Z,8.668476
2022-08-20T05:46:50.844Z,8.668501
2022-08-20T05:47:56.437Z,8.668530
2022-08-20T05:48:50.817Z,8.668588
2022-08-20T05:49:49.818Z,8.668513
2022-08-20T05:50:49.897Z,8.668527
2022-08-20T05:51:49.789Z,8.668480
2022-08-20T05:52:49.902Z,8.668487
2022-08-20T05:53:49.779Z,8.668546
2022-08-20T05:54:49.833Z,8.668564
2022-08-20T05:55:49.713Z,8.668545
2022-08-20T05:56:49.800Z,8.668529
2022-08-20T05:57:49.684Z,8.668495
2022-08-20T05:58:49.709Z,8.668510
2022-08-20T05:59:49.608Z,8.668545
2022-08-20T06:00:49.799Z,8.668512
2022-08-20T06:01:49.603Z,8.668427
2022-08-20T06:02:49.666Z,8.668483
2022-08-20T06:03:49.583Z,8.668467
2022-08-20T06:04:56.230Z,8.668500
2022-08-20T06:05:50.529Z,8.668455
2022-08-20T06:06:49.591Z,8.668550
2022-08-20T06:07:49.562Z,8.668568
2022-08-20T06:08:49.595Z,8.668555
2022-08-20T06:09:49.459Z,8.668526
2022-08-20T06:10:49.517Z,8.668555
2022-08-20T06:11:49.388Z,8.668472
2022-08-20T06:12:49.498Z,8.668394
2022-08-20T06:13:49.354Z,8.668478
2022-08-20T06:14:49.464Z,8.668488
2022-08-20T06:15:49.330Z,8.668533
2022-08-20T06:16:57.629Z,8.668489
2022-08-20T06:17:58.153Z,8.668653
2022-08-20T06:18:50.392Z,8.668548
2022-08-20T06:19:49.816Z,8.668572
2022-08-20T06:20:49.378Z,8.668675
2022-08-20T06:21:49.233Z,8.668640
2022-08-20T06:22:49.301Z,8.668648
2022-08-20T06:23:57.466Z,8.668637
2022-08-20T06:24:50.335Z,8.668715
2022-08-20T06:25:49.148Z,8.668616
2022-08-20T06:26:49.207Z,8.668566
2022-08-20T06:27:49.221Z,8.668606
2022-08-20T06:28:49.183Z,8.668609
2022-08-20T06:29:50.100Z,8.668586
2022-08-20T06:30:49.213Z,8.668605
2022-08-20T06:31:49.019Z,8.668598
2022-08-20T06:32:49.126Z,8.668560
2022-08-20T06:33:48.983Z,8.668560
2022-08-20T06:34:50.807Z,8.668546
2022-08-20T06:35:48.992Z,8.668588
2022-08-20T06:36:49.046Z,8.668607
2022-08-20T06:37:48.917Z,8.668539
2022-08-20T06:38:49.044Z,8.668574
2022-08-20T06:39:48.947Z,8.668601
2022-08-20T06:40:49.023Z,8.668581
2022-08-20T06:41:48.849Z,8.668641
2022-08-20T06:42:49.112Z,8.668579
2022-08-20T06:43:48.819Z,8.668603
2022-08-20T06:44:48.929Z,8.668552
2022-08-20T06:45:48.778Z,8.668527
2022-08-20T06:46:48.878Z,8.668578
2022-08-20T06:47:48.725Z,8.668524
2022-08-20T06:48:48.793Z,8.668602
2022-08-20T06:49:48.685Z,8.668531
2022-08-20T06:50:48.786Z,8.668428
2022-08-20T06:51:51.924Z,8.668416
2022-08-20T06:52:52.812Z,8.668502
2022-08-20T06:53:49.619Z,8.668516
2022-08-20T06:54:48.743Z,8.668438
2022-08-20T06:55:48.756Z,8.668466
2022-08-20T06:56:48.691Z,8.668522
2022-08-20T06:57:48.552Z,8.668528
2022-08-20T06:58:48.607Z,8.668531
2022-08-20T06:59:49.031Z,8.668516
2022-08-20T07:00:49.628Z,8.668447
2022-08-20T07:01:48.455Z,8.668463
2022-08-20T07:02:48.581Z,8.668543
2022-08-20T07:03:55.838Z,8.668509
2022-08-20T07:04:49.524Z,8.668508
2022-08-20T07:05:48.414Z,8.668465
2022-08-20T07:06:48.469Z,8.668512
2022-08-20T07:07:48.396Z,8.668453
2022-08-20T07:08:48.436Z,8.668560
2022-08-20T07:09:48.315Z,8.668613
2022-08-20T07:10:48.443Z,8.668577
2022-08-20T07:11:48.296Z,8.668620
2022-08-20T07:12:48.384Z,8.668608
2022-08-20T07:13:48.223Z,8.668622
2022-08-20T07:14:48.305Z,8.668584
2022-08-20T07:15:48.214Z,8.668553
2022-08-20T07:16:48.288Z,8.668552
2022-08-20T07:17:48.166Z,8.668525
2022-08-20T07:18:48.248Z,8.668550
2022-08-20T07:19:48.113Z,8.668606
2022-08-20T07:20:48.206Z,8.668594
2022-08-20T07:21:48.075Z,8.668496
2022-08-20T07:22:48.146Z,8.668470
2022-08-20T07:23:48.086Z,8.668526
2022-08-20T07:24:49.231Z,8.668590
2022-08-20T07:25:48.002Z,8.668499
2022-08-20T07:26:48.085Z,8.668534
2022-08-20T07:27:47.980Z,8.668438
2022-08-20T07:28:48.149Z,8.668513
2022-08-20T07:29:47.941Z,8.668650
2022-08-20T07:30:57.104Z,8.668609
2022-08-20T07:31:48.897Z,8.668582
2022-08-20T07:32:48.000Z,8.668543
2022-08-20T07:33:50.234Z,8.668560
2022-08-20T07:34:47.979Z,8.668553
2022-08-20T07:35:47.806Z,8.668616
2022-08-20T07:36:48.177Z,8.668582
2022-08-20T07:37:47.784Z,8.668570
2022-08-20T07:38:47.838Z,8.668612
2022-08-20T07:39:47.782Z,8.668557
2022-08-20T07:40:47.831Z,8.668590
2022-08-20T07:41:56.552Z,8.668612
2022-08-20T07:42:49.355Z,8.668626
2022-08-20T07:43:47.654Z,8.668614
2022-08-20T07:44:47.860Z,8.668517
2022-08-20T07:45:52.132Z,8.668521
2022-08-20T07:46:47.770Z,8.668514
2022-08-20T07:47:47.579Z,8.668560
2022-08-20T07:48:47.647Z,8.668554
2022-08-20T07:49:47.548Z,8.668546
2022-08-20T07:50:47.641Z,8.668544
2022-08-20T07:51:47.501Z,8.668529
2022-08-20T07:52:47.617Z,8.668571
2022-08-20T07:53:47.482Z,8.668551
2022-08-20T07:54:47.572Z,8.668541
2022-08-20T07:55:57.144Z,8.668533
2022-08-20T07:56:48.542Z,8.668535
2022-08-20T07:57:47.401Z,8.668539
2022-08-20T07:58:47.490Z,8.668574
2022-08-20T07:59:47.384Z,8.668593
2022-08-20T08:00:47.654Z,8.668548
2022-08-20T08:01:47.340Z,8.668517
2022-08-20T08:02:47.493Z,8.668500
2022-08-20T08:03:50.481Z,8.668551
2022-08-20T08:04:47.365Z,8.668530
2022-08-20T08:05:47.319Z,8.668524
2022-08-20T08:06:47.351Z,8.668511
2022-08-20T08:07:47.263Z,8.668564
2022-08-20T08:08:47.314Z,8.668580
2022-08-20T08:09:47.174Z,8.668565
2022-08-20T08:10:47.282Z,8.668583
2022-08-20T08:11:47.786Z,8.668565
2022-08-20T08:12:47.244Z,8.668576
2022-08-20T08:13:47.118Z,8.668583
2022-08-20T08:14:47.177Z,8.668587
2022-08-20T08:15:47.071Z,8.668598
2022-08-20T08:16:47.191Z,8.668561
2022-08-20T08:17:47.037Z,8.668587
2022-08-20T08:18:47.146Z,8.668549
2022-08-20T08:19:47.013Z,8.668586
2022-08-20T08:20:47.185Z,8.668581
2022-08-20T08:21:47.010Z,8.668590
2022-08-20T08:22:47.073Z,8.668619
2022-08-20T08:23:46.957Z,8.668535
2022-08-20T08:24:57.282Z,8.668638
2022-08-20T08:25:47.907Z,8.668608
2022-08-20T08:26:46.985Z,8.668569
2022-08-20T08:27:46.899Z,8.668592
2022-08-20T08:28:46.914Z,8.668556
2022-08-20T08:29:46.791Z,8.668570
2022-08-20T08:30:46.883Z,8.668545
2022-08-20T08:31:46.873Z,8.668525
2022-08-20T08:32:46.900Z,8.668510
2022-08-20T08:33:46.724Z,8.668480
2022-08-20T08:34:46.788Z,8.668488
2022-08-20T08:35:46.717Z,8.668512
2022-08-20T08:36:46.860Z,8.668495
2022-08-20T08:37:46.644Z,8.668571
2022-08-20T08:38:46.786Z,8.668589
2022-08-20T08:39:46.624Z,8.668579
2022-08-20T08:40:46.695Z,8.668596
2022-08-20T08:41:46.653Z,8.668557
2022-08-20T08:42:46.666Z,8.668489
2022-08-20T08:43:46.561Z,8.668568
2022-08-20T08:44:46.624Z,8.668524
2022-08-20T08:45:46.541Z,8.668500
2022-08-20T08:46:46.586Z,8.668569
2022-08-20T08:47:46.491Z,8.668547
2022-08-20T08:48:46.614Z,8.668640
2022-08-20T08:49:46.444Z,8.668652
2022-08-20T08:50:53.794Z,8.668588
2022-08-20T08:51:47.370Z,8.668654
2022-08-20T08:52:46.466Z,8.668657
2022-08-20T08:53:46.383Z,8.668588
2022-08-20T08:54:46.421Z,8.668584
2022-08-20T08:55:46.320Z,8.668563
2022-08-20T08:56:50.427Z,8.668557
2022-08-20T08:57:46.281Z,8.668562
2022-08-20T08:58:46.344Z,8.668559
2022-08-20T08:59:52.502Z,8.668611
2022-08-20T09:00:52.812Z,8.668550
2022-08-20T09:01:53.861Z,8.668572
2022-08-20T09:02:47.368Z,8.668617
2022-08-20T09:03:46.168Z,8.668679
2022-08-20T09:04:46.265Z,8.668604
2022-08-20T09:05:46.107Z,8.668576
2022-08-20T09:06:48.398Z,8.668579
2022-08-20T09:07:47.123Z,8.668548
2022-08-20T09:08:46.147Z,8.668571
2022-08-20T09:09:46.054Z,8.668616
2022-08-20T09:10:46.178Z,8.668582
2022-08-20T09:11:46.005Z,8.668597
2022-08-20T09:12:47.836Z,8.668627
2022-08-20T09:13:46.021Z,8.668618
2022-08-20T09:14:46.052Z,8.668558
2022-08-20T09:15:45.993Z,8.668617
2022-08-20T09:16:53.037Z,8.668541
2022-08-20T09:17:46.902Z,8.668595
2022-08-20T09:18:45.985Z,8.668597
2022-08-20T09:19:45.884Z,8.668603
2022-08-20T09:20:45.960Z,8.668608
2022-08-20T09:21:45.813Z,8.668560
2022-08-20T09:22:45.901Z,8.668591
2022-08-20T09:23:45.765Z,8.668560
2022-08-20T09:24:45.858Z,8.668522
2022-08-20T09:25:45.759Z,8.668594
2022-08-20T09:26:45.881Z,8.668542
2022-08-20T09:27:45.722Z,8.668635
2022-08-20T09:28:51.212Z,8.668663
2022-08-20T09:29:46.682Z,8.668659
2022-08-20T09:30:45.743Z,8.668642
2022-08-20T09:31:46.440Z,8.668578
2022-08-20T09:32:45.726Z,8.668569
2022-08-20T09:33:45.599Z,8.668553
2022-08-20T09:34:45.652Z,8.668627
2022-08-20T09:35:45.540Z,8.668572
2022-08-20T09:36:45.631Z,8.668555
2022-08-20T09:37:45.535Z,8.668565
2022-08-20T09:38:45.573Z,8.668563
2022-08-20T09:39:45.528Z,8.668555
2022-08-20T09:40:45.525Z,8.668550
2022-08-20T09:41:45.435Z,8.668582
2022-08-20T09:42:45.515Z,8.668622
2022-08-20T09:43:45.382Z,8.668555
2022-08-20T09:44:45.537Z,8.668583
2022-08-20T09:45:45.372Z,8.668633
2022-08-20T09:46:45.469Z,8.668611
2022-08-20T09:47:54.743Z,8.668596
2022-08-20T09:48:46.400Z,8.668571
2022-08-20T09:49:45.301Z,8.668511
2022-08-20T09:50:45.356Z,8.668611
2022-08-20T09:51:45.258Z,8.668618
2022-08-20T09:52:45.420Z,8.668499
2022-08-20T09:53:45.207Z,8.668622
2022-08-20T09:54:46.599Z,8.668567
2022-08-20T09:55:45.205Z,8.668564
2022-08-20T09:56:45.268Z,8.668554
2022-08-20T09:57:45.119Z,8.668571
2022-08-20T09:58:45.233Z,8.668520
2022-08-20T09:59:45.091Z,8.668533
2022-08-20T10:00:45.228Z,8.668674
2022-08-20T10:01:45.076Z,8.668563
2022-08-20T10:02:45.109Z,8.668599
2022-08-20T10:03:45.075Z,8.668589
2022-08-20T10:04:45.103Z,8.668534
2022-08-20T10:05:44.964Z,8.668527
2022-08-20T10:06:45.069Z,8.668530
2022-08-20T10:07:44.992Z,8.668551
2022-08-20T10:08:45.077Z,8.668513
2022-08-20T10:09:44.885Z,8.668525
2022-08-20T10:10:45.006Z,8.668533
2022-08-20T10:11:44.866Z,8.668535
2022-08-20T10:12:44.948Z,8.668540
2022-08-20T10:13:44.872Z,8.668558
2022-08-20T10:14:44.915Z,8.668543
2022-08-20T10:15:44.766Z,8.668588
2022-08-20T10:16:44.946Z,8.668536
2022-08-20T10:17:44.744Z,8.668545
2022-08-20T10:18:44.911Z,8.668587
2022-08-20T10:19:44.738Z,8.668613
2022-08-20T10:20:44.773Z,8.668600
2022-08-20T10:21:44.668Z,8.668587
2022-08-20T10:22:44.750Z,8.668601
2022-08-20T10:23:44.614Z,8.668564
2022-08-20T10:24:44.760Z,8.668594
2022-08-20T10:25:44.593Z,8.668542
2022-08-20T10:26:44.680Z,8.668553
2022-08-20T10:27:44.587Z,8.668591
2022-08-20T10:28:44.647Z,8.668542
2022-08-20T10:29:47.068Z,8.668549
2022-08-20T10:30:44.669Z,8.668542
2022-08-20T10:31:44.598Z,8.668554
2022-08-20T10:32:44.562Z,8.668528
2022-08-20T10:33:44.547Z,8.668571
2022-08-20T10:34:44.610Z,8.668542
2022-08-20T10:35:44.551Z,8.668589
2022-08-20T10:36:44.488Z,8.668571
2022-08-20T10:37:44.471Z,8.668581
2022-08-20T10:38:44.430Z,8.668607
2022-08-20T10:39:44.486Z,8.668613
2022-08-20T10:40:49.811Z,8.668495
2022-08-20T10:41:45.303Z,8.668570
2022-08-20T10:42:44.920Z,8.668587
2022-08-20T10:43:44.430Z,8.668604
2022-08-20T10:44:44.368Z,8.668635
2022-08-20T10:45:44.378Z,8.668610
2022-08-20T10:46:44.309Z,8.668592
2022-08-20T10:47:44.545Z,8.668571
2022-08-20T10:48:44.268Z,8.668557
2022-08-20T10:49:44.260Z,8.668540
2022-08-20T10:50:44.241Z,8.668590
2022-08-20T10:51:44.237Z,8.668564
2022-08-20T10:52:44.172Z,8.668624
2022-08-20T10:53:44.190Z,8.668591
2022-08-20T10:54:44.173Z,8.668458
2022-08-20T10:55:44.144Z,8.668512
2022-08-20T10:56:44.145Z,8.668563
2022-08-20T10:57:44.090Z,8.668620
2022-08-20T10:58:44.540Z,8.668550
2022-08-20T10:59:44.122Z,8.668537
2022-08-20T11:00:44.055Z,8.668624
2022-08-20T11:01:44.634Z,8.668653
2022-08-20T11:02:44.013Z,8.668725
2022-08-20T11:03:44.020Z,8.668777
2022-08-20T11:04:43.960Z,8.668787
2022-08-20T11:05:43.933Z,8.668807
2022-08-20T11:06:43.948Z,8.668869
2022-08-20T11:07:54.711Z,8.668797
2022-08-20T11:08:44.891Z,8.668790
2022-08-20T11:09:43.990Z,8.668778
2022-08-20T11:10:43.851Z,8.668767
2022-08-20T11:11:44.090Z,8.668829
2022-08-20T11:12:46.089Z,8.668807
2022-08-20T11:13:43.779Z,8.668667
2022-08-20T11:14:43.793Z,8.668669
2022-08-20T11:15:43.773Z,8.668674
2022-08-20T11:16:43.737Z,8.668642
2022-08-20T11:17:43.797Z,8.668618
2022-08-20T11:18:47.445Z,8.668673
2022-08-20T11:19:43.678Z,8.668565
2022-08-20T11:20:43.658Z,8.668584
2022-08-20T11:21:43.675Z,8.668550
2022-08-20T11:22:43.671Z,8.668574
2022-08-20T11:23:43.685Z,8.668608
2022-08-20T11:24:43.648Z,8.668600
2022-08-20T11:25:43.581Z,8.668656
2022-08-20T11:26:43.605Z,8.668634
2022-08-20T11:27:43.541Z,8.668606
2022-08-20T11:28:43.540Z,8.668606
2022-08-20T11:29:43.495Z,8.668673
2022-08-20T11:30:43.467Z,8.668787
2022-08-20T11:31:43.460Z,8.668617
2022-08-20T11:32:43.446Z,8.668661
2022-08-20T11:33:43.427Z,8.668576
2022-08-20T11:34:43.462Z,8.668618
2022-08-20T11:35:49.183Z,8.668734
2022-08-20T11:36:44.390Z,8.668758
2022-08-20T11:37:43.384Z,8.668794
2022-08-20T11:38:43.318Z,8.668759
2022-08-20T11:39:43.394Z,8.668677
2022-08-20T11:40:43.382Z,8.668663
2022-08-20T11:41:45.818Z,8.668672
2022-08-20T11:43:04.315Z,8.668653
2022-08-20T11:43:59.528Z,8.668650
2022-08-20T11:44:44.245Z,8.668656